KBKT/BKT METAR and TAF weather

Enter ICAO airport designator
Station Type Date Time Source
KBKT METAR 2021/01/27 14:15 UTC NOAA

KBKT 271415Z AUTO 03005KT 1/2SM FG OVC001 04/04 A3008 RMK AO1 T00410041


Station Type Date Time Source
KBKT Decoded METAR 2021/01/27 14:15 UTC NOAA

Ft. Pickett / Blackstone, VA, United States (KBKT) 37-05N 077-57W
Jan 27, 2021 - 09:15 AM EST / 2021.01.27 1415 UTC
Wind: from the NNE (030 degrees) at 6 MPH (5 KT):0
Visibility: 1/2 mile(s):0
Sky conditions: overcast
Weather: fog
Temperature: 39.4 F (4.1 C)
Dew Point: 39.4 F (4.1 C)
Relative Humidity: 100%
Pressure (altimeter): 30.08 in. Hg (1018 hPa)
ob: KBKT 271415Z AUTO 03005KT 1/2SM FG OVC001 04/04 A3008 RMK AO1 T00410041
cycle: 14

Station Type Date Time Source
KBKT TAF UTC NOAA

Error!

Example: see airport list